CheckWX is a tool to help pilots better visualize weather data.  It is not intended as a substitute for an official pre-flight weather briefing.

20:14:03 UTC

KSTF METAR
George M Bryan Airport
Starkville, Mississippi, USA
Current

19 mins ago

KSTF 261955Z AUTO 21007KT CLR 31/20 A3017 RMK AO2 PWINO
Observed
Jun-26 @ 19:55 UTC
Wind
  • 210° at 7 KTS
Visibility
Cloud Levels
  • Clear skies
Temperature
31°C / 88°F
Dewpoint
20°C / 68°F
Heat Index
33°C / 92°F
Humidity
52%
Altimeter
30.17" Hg
Pressure
1021.72 hPa
Previous

39 mins ago

KSTF 261935Z AUTO 25004KT CLR 31/21 A3018 RMK AO2 PWINO
Observed
Jun-26 @ 19:35 UTC
Wind
  • 250° at 4 KTS
Visibility
Cloud Levels
  • Clear skies
Temperature
31°C / 88°F
Dewpoint
21°C / 70°F
Heat Index
34°C / 93°F
Humidity
55%
Altimeter
30.18" Hg
Pressure
1022.02 hPa
Previous

59 mins ago

KSTF 261915Z AUTO 26008KT CLR 31/19 A3018 RMK AO2 PWINO
Observed
Jun-26 @ 19:15 UTC
Wind
  • 260° at 8 KTS
Visibility
Cloud Levels
  • Clear skies
Temperature
31°C / 88°F
Dewpoint
19°C / 66°F
Heat Index
33°C / 91°F
Humidity
49%
Altimeter
30.18" Hg
Pressure
1022.02 hPa